Time;durP1;ratioP1;P1;durP2;ratioP2;P2;SDS_P1;SDS_P2;PMS_P1;PMS_P2;Temp;Humidity;BMP_temperature;BMP_pressure;BME280_temperature;BME280_humidity;BME280_pressure;Samples;Min_cycle;Max_cycle;Signal;HPM_P1;HPM_P2
2021/03/31 00:02:24;;;;;;;10.03;6.43;;;;;;;8.84;47.93;99950.66;5091316;28;41951;-74
2021/03/31 00:04:52;;;;;;;8.90;6.80;;;;;;;8.84;48.15;99956.78;5090393;28;40593;-74
2021/03/31 00:07:19;;;;;;;7.03;5.70;;;;;;;8.78;48.15;99942.97;5075029;28;41048;-74
2021/03/31 00:09:47;;;;;;;9.03;6.37;;;;;;;8.77;48.40;99950.03;5091489;28;41813;-74
2021/03/31 00:12:14;;;;;;;9.37;6.17;;;;;;;8.72;49.07;99941.41;5108993;28;42343;-74
2021/03/31 00:14:41;;;;;;;10.17;6.90;;;;;;;8.70;48.94;99937.97;5054907;28;39722;-74
2021/03/31 00:17:08;;;;;;;7.17;5.50;;;;;;;8.68;49.08;99945.06;5092224;28;41638;-74
2021/03/31 00:19:35;;;;;;;7.83;5.67;;;;;;;8.68;48.88;99947.72;5074474;28;42539;-73
2021/03/31 00:22:02;;;;;;;7.67;6.40;;;;;;;8.65;49.20;99950.50;5092119;28;42219;-73
2021/03/31 00:24:29;;;;;;;6.73;5.17;;;;;;;8.63;49.72;99939.97;5092254;28;40361;-74
2021/03/31 00:26:57;;;;;;;8.57;5.20;;;;;;;8.61;49.82;99940.94;5111734;28;41386;-74
2021/03/31 00:29:24;;;;;;;7.97;6.07;;;;;;;8.57;49.95;99932.28;5078200;28;41709;-73
2021/03/31 00:31:51;;;;;;;6.10;5.07;;;;;;;8.55;50.38;99933.25;5112528;28;43003;-73
2021/03/31 00:34:18;;;;;;;7.80;5.57;;;;;;;8.54;50.10;99927.09;5094288;28;40795;-74
2021/03/31 00:36:45;;;;;;;7.17;5.57;;;;;;;8.51;50.07;99927.25;5094772;28;41792;-73
2021/03/31 00:39:12;;;;;;;7.10;5.00;;;;;;;8.42;50.04;99916.13;5094241;28;42600;-73
2021/03/31 00:41:39;;;;;;;7.57;5.37;;;;;;;8.32;49.83;99909.47;5108694;27;42366;-73
2021/03/31 00:44:07;;;;;;;7.27;5.07;;;;;;;8.36;49.71;99927.78;5098574;27;39011;-74
2021/03/31 00:46:34;;;;;;;6.23;5.00;;;;;;;8.35;49.81;99943.69;5098327;27;41098;-74
2021/03/31 00:49:01;;;;;;;8.83;5.63;;;;;;;8.31;49.86;99929.69;5129808;27;43218;-74
2021/03/31 00:51:29;;;;;;;7.07;4.93;;;;;;;8.23;50.07;99926.47;5077685;28;42154;-74
2021/03/31 00:53:56;;;;;;;6.53;5.20;;;;;;;8.18;49.92;99924.00;5077853;28;41005;-73
2021/03/31 00:56:23;;;;;;;5.87;4.73;;;;;;;8.15;49.99;99921.50;5094625;28;41465;-76
2021/03/31 00:58:50;;;;;;;8.43;5.17;;;;;;;8.09;50.14;99918.19;5111943;28;42787;-75
2021/03/31 01:01:18;;;;;;;8.43;6.93;;;;;;;8.00;50.42;99906.19;5094711;28;41227;-75
2021/03/31 01:03:45;;;;;;;7.57;5.60;;;;;;;7.99;50.51;99916.78;5112020;28;39947;-73
2021/03/31 01:06:12;;;;;;;7.80;5.60;;;;;;;7.94;50.39;99919.59;5093284;28;41490;-74
2021/03/31 01:08:39;;;;;;;8.70;5.90;;;;;;;7.90;50.38;99912.72;5112035;28;42712;-73
2021/03/31 01:11:07;;;;;;;6.77;5.73;;;;;;;7.81;50.29;99902.47;5093698;28;42879;-74
2021/03/31 01:13:46;;;;;;;5.77;5.00;;;;;;;7.79;50.66;99910.41;5093365;28;40380;-73
2021/03/31 01:16:27;;;;;;;6.50;5.20;;;;;;;7.74;50.63;99909.72;5076949;28;40666;-74
2021/03/31 01:18:59;;;;;;;7.20;5.17;;;;;;;7.69;50.85;99902.88;5093290;28;42487;-74
2021/03/31 01:22:17;;;;;;;7.13;5.50;;;;;;;7.65;51.05;99893.38;5093233;28;42985;-74
2021/03/31 01:25:13;;;;;;;8.20;5.63;;;;;;;7.58;51.38;99890.94;5111497;28;40564;-76
2021/03/31 01:28:08;;;;;;;8.53;5.50;;;;;;;7.55;52.12;99893.66;5076805;28;41071;-73
2021/03/31 01:30:45;;;;;;;7.73;5.23;;;;;;;7.52;52.07;99887.66;5111669;28;42981;-74
2021/03/31 01:33:46;;;;;;;6.33;5.70;;;;;;;7.51;52.66;99892.06;5077252;28;41585;-74
2021/03/31 01:36:17;;;;;;;8.93;5.87;;;;;;;7.49;52.43;99899.16;5093351;28;39921;-74
2021/03/31 01:38:51;;;;;;;8.83;6.23;;;;;;;7.46;52.13;99891.34;5111719;28;42524;-75
2021/03/31 01:41:21;;;;;;;5.73;5.13;;;;;;;7.42;52.16;99900.25;5111202;28;42430;-73
2021/03/31 01:43:51;;;;;;;9.43;5.30;;;;;;;7.40;52.05;99899.47;5076640;28;41297;-75
2021/03/31 01:46:22;;;;;;;5.87;4.90;;;;;;;7.32;52.54;99885.66;5111643;28;41129;-75
2021/03/31 01:48:50;;;;;;;7.23;5.53;;;;;;;7.36;52.76;99895.19;5094139;28;41746;-73
2021/03/31 01:51:21;;;;;;;6.13;4.83;;;;;;;7.36;53.14;99895.19;5111751;28;42769;-73
2021/03/31 01:53:49;;;;;;;7.37;5.00;;;;;;;7.26;53.51;99875.34;5076564;28;42240;-74
2021/03/31 01:56:17;;;;;;;6.97;5.70;;;;;;;7.31;53.07;99883.94;5093584;28;40020;-74
2021/03/31 01:58:46;;;;;;;7.73;5.20;;;;;;;7.26;53.45;99893.78;5076957;28;40776;-73
2021/03/31 02:01:17;;;;;;;6.47;4.93;;;;;;;7.23;53.11;99893.88;5092546;28;42820;-74
2021/03/31 02:03:46;;;;;;;7.93;5.13;;;;;;;7.16;53.17;99885.31;5072655;28;41484;-73
2021/03/31 02:06:14;;;;;;;7.30;5.53;;;;;;;7.14;52.86;99899.44;5072367;28;39924;-74
2021/03/31 02:08:43;;;;;;;7.23;4.87;;;;;;;7.08;52.97;99894.34;5089045;28;42529;-73
2021/03/31 02:11:10;;;;;;;7.50;5.30;;;;;;;7.04;52.77;99903.28;5091005;28;42625;-75
2021/03/31 02:13:39;;;;;;;7.67;5.07;;;;;;;6.94;52.90;99892.16;5110906;28;42195;-74
2021/03/31 02:16:08;;;;;;;9.70;6.80;;;;;;;6.91;53.02;99891.41;5110885;28;39697;-74
2021/03/31 02:18:36;;;;;;;6.03;4.87;;;;;;;6.88;53.31;99886.22;5093414;28;40920;-74
2021/03/31 02:21:05;;;;;;;6.90;5.37;;;;;;;6.85;54.26;99876.66;5111045;28;43456;-73
2021/03/31 02:23:35;;;;;;;7.97;5.53;;;;;;;6.83;56.16;99874.06;5092260;28;42829;-74
2021/03/31 02:26:04;;;;;;;8.60;6.17;;;;;;;6.77;55.22;99866.38;5093385;28;40050;-74
2021/03/31 02:28:31;;;;;;;8.00;5.87;;;;;;;6.79;55.05;99876.84;5092300;28;41651;-74
2021/03/31 02:30:58;;;;;;;8.30;6.30;;;;;;;6.73;54.75;99861.22;5092336;28;42523;-73
2021/03/31 02:33:27;;;;;;;8.30;5.43;;;;;;;6.63;54.60;99844.88;5110282;28;42177;-76
2021/03/31 02:35:55;;;;;;;7.10;4.87;;;;;;;6.74;54.85;99873.50;5093230;28;40814;-76
2021/03/31 02:38:23;;;;;;;9.27;5.93;;;;;;;6.56;54.98;99848.56;5109572;28;42083;-74
2021/03/31 02:40:51;;;;;;;8.27;5.83;;;;;;;6.68;54.58;99873.66;5110929;28;42566;-74
2021/03/31 02:43:21;;;;;;;7.77;5.73;;;;;;;6.65;54.66;99881.66;5110477;28;42225;-74
2021/03/31 02:45:53;;;;;;;5.83;4.70;;;;;;;6.50;54.60;99859.31;5110290;28;40054;-74
2021/03/31 02:48:21;;;;;;;7.83;5.53;;;;;;;6.49;54.46;99865.47;5093055;28;41562;-73
2021/03/31 02:50:49;;;;;;;6.37;5.00;;;;;;;6.54;54.50;99873.25;5091998;28;42443;-74
2021/03/31 02:53:17;;;;;;;6.87;5.67;;;;;;;6.50;54.41;99864.56;5110313;28;42185;-74
2021/03/31 02:55:44;;;;;;;5.50;4.87;;;;;;;6.44;54.42;99862.09;5092605;28;40151;-74
2021/03/31 02:58:11;;;;;;;7.30;5.00;;;;;;;6.41;54.40;99870.09;5091917;28;40564;-74
2021/03/31 03:00:41;;;;;;;9.90;6.63;;;;;;;6.37;54.57;99868.47;5110192;28;43414;-74
2021/03/31 03:03:09;;;;;;;10.70;6.13;;;;;;;6.35;54.79;99854.50;5109994;28;42616;-74
2021/03/31 03:05:37;;;;;;;5.60;5.00;;;;;;;6.32;54.82;99854.56;5110166;28;39908;-74
2021/03/31 03:08:05;;;;;;;6.67;4.93;;;;;;;6.30;55.02;99859.03;5091871;28;41677;-74
2021/03/31 03:10:32;;;;;;;7.00;5.03;;;;;;;6.28;55.45;99858.22;5076042;28;43127;-74
2021/03/31 03:13:01;;;;;;;6.47;5.77;;;;;;;6.23;55.51;99849.59;5091420;28;43170;-74
2021/03/31 03:15:30;;;;;;;8.70;5.33;;;;;;;6.21;55.99;99841.72;5109402;28;40653;-74
2021/03/31 03:17:58;;;;;;;7.30;5.80;;;;;;;6.25;56.51;99853.91;5091657;28;42515;-74
2021/03/31 03:20:26;;;;;;;9.10;5.47;;;;;;;6.25;55.91;99848.63;5109715;28;43180;-74
2021/03/31 03:22:55;;;;;;;6.40;5.63;;;;;;;6.23;55.88;99844.31;5093518;28;20229;-74
2021/03/31 03:25:23;;;;;;;5.23;4.27;;;;;;;6.22;55.87;99842.59;5091794;28;41885;-74
2021/03/31 03:27:51;;;;;;;6.03;5.07;;;;;;;6.21;56.17;99849.63;5091626;28;41693;-74
2021/03/31 03:30:21;;;;;;;9.77;6.47;;;;;;;6.02;55.86;99815.13;5109884;28;42461;-74
2021/03/31 03:32:50;;;;;;;7.97;6.53;;;;;;;6.17;55.94;99844.50;5092569;28;41276;-74
2021/03/31 03:35:21;;;;;;;5.63;4.87;;;;;;;6.15;56.10;99834.03;5090862;28;39696;-74
2021/03/31 03:37:49;;;;;;;8.60;5.23;;;;;;;6.12;55.94;99842.88;5109629;28;42235;-74
2021/03/31 03:40:18;;;;;;;8.50;5.67;;;;;;;6.10;56.17;99841.19;5091832;28;43513;-74
2021/03/31 03:42:46;;;;;;;7.10;5.53;;;;;;;6.08;56.12;99851.75;5109789;28;42962;-74
2021/03/31 03:45:13;;;;;;;7.93;6.23;;;;;;;6.05;56.34;99843.97;5092492;28;39855;-74
2021/03/31 03:47:40;;;;;;;6.93;5.17;;;;;;;6.03;56.59;99848.41;5109470;28;41994;-74
2021/03/31 03:50:09;;;;;;;10.57;6.37;;;;;;;5.94;56.68;99838.13;5091385;28;43160;-74
2021/03/31 03:52:38;;;;;;;8.10;6.03;;;;;;;5.96;56.89;99836.31;5078946;28;42220;-74
2021/03/31 03:55:07;;;;;;;7.60;5.47;;;;;;;5.96;56.90;99840.72;5113263;28;39819;-74
2021/03/31 03:57:34;;;;;;;8.03;5.13;;;;;;;5.94;56.69;99843.38;5113390;28;42501;-74
2021/03/31 04:00:02;;;;;;;9.67;6.40;;;;;;;5.90;56.77;99841.75;5078644;28;42973;-74
2021/03/31 04:02:39;;;;;;;6.73;5.47;;;;;;;5.82;57.05;99827.03;5112994;28;42077;-74
2021/03/31 04:05:07;;;;;;;7.73;5.83;;;;;;;5.86;57.17;99841.84;5112946;28;39746;-74
2021/03/31 04:07:34;;;;;;;9.23;6.67;;;;;;;5.84;57.37;99839.25;5095320;28;42560;-74
2021/03/31 04:10:04;;;;;;;10.57;7.13;;;;;;;5.84;58.19;99841.00;5112481;28;42437;-74
2021/03/31 04:12:32;;;;;;;10.63;6.87;;;;;;;5.75;57.92;99827.22;5093906;28;42051;-74
2021/03/31 04:15:00;;;;;;;6.33;5.63;;;;;;;5.80;57.66;99839.41;5112163;28;40702;-74
2021/03/31 04:17:28;;;;;;;8.27;5.40;;;;;;;5.77;57.53;99850.84;5112805;28;41676;-74
2021/03/31 04:19:56;;;;;;;7.10;5.73;;;;;;;5.72;57.43;99843.06;5112537;28;42758;-74
2021/03/31 04:22:23;;;;;;;6.77;5.67;;;;;;;5.72;57.49;99847.47;5112813;28;42904;-74
2021/03/31 04:24:50;;;;;;;10.67;6.10;;;;;;;5.69;57.54;99844.91;5094335;28;40685;-74
2021/03/31 04:27:19;;;;;;;7.63;5.17;;;;;;;5.68;58.73;99835.34;5094330;28;42454;-75
2021/03/31 04:29:47;;;;;;;5.97;5.30;;;;;;;5.67;58.57;99837.09;5074072;28;41663;-74
2021/03/31 04:32:16;;;;;;;6.27;5.17;;;;;;;5.60;58.26;99826.78;5092301;28;43237;-74
2021/03/31 04:34:44;;;;;;;10.27;6.53;;;;;;;5.61;58.15;99833.75;5090952;28;40655;-74
2021/03/31 04:37:14;;;;;;;6.47;5.53;;;;;;;5.47;58.01;99809.63;5093779;28;41308;-74
2021/03/31 04:39:42;;;;;;;5.73;5.10;;;;;;;5.58;57.90;99832.06;5094866;28;42056;-74
2021/03/31 04:42:10;;;;;;;5.30;4.70;;;;;;;5.61;57.82;99841.63;5095030;28;41545;-74
2021/03/31 04:44:38;;;;;;;5.93;4.73;;;;;;;5.58;57.58;99839.09;5112314;28;39760;-74
2021/03/31 04:47:06;;;;;;;7.50;5.30;;;;;;;5.45;58.01;99817.53;5111440;28;41462;-74
2021/03/31 04:49:33;;;;;;;9.10;6.17;;;;;;;5.59;58.10;99830.31;5112079;28;43412;-74
2021/03/31 04:51:59;;;;;;;7.80;5.13;;;;;;;5.61;58.32;99832.00;5094795;28;41355;-75
2021/03/31 04:54:26;;;;;;;5.97;5.17;;;;;;;5.64;57.98;99836.31;5094802;28;39026;-74
2021/03/31 04:56:54;;;;;;;6.20;4.80;;;;;;;5.68;58.02;99835.34;5112727;28;42411;-74
2021/03/31 04:59:21;;;;;;;8.20;5.57;;;;;;;5.60;57.98;99821.53;5111909;28;43251;-73
2021/03/31 05:01:48;;;;;;;6.27;5.10;;;;;;;5.74;57.83;99840.41;5094268;28;42131;-74
2021/03/31 05:04:15;;;;;;;8.33;6.20;;;;;;;5.72;57.74;99836.97;5074088;28;40169;-74
2021/03/31 05:06:43;;;;;;;6.17;4.77;;;;;;;5.78;57.76;99834.19;5092004;28;42145;-74
2021/03/31 05:09:10;;;;;;;7.50;5.30;;;;;;;5.85;57.62;99840.13;5091440;28;42767;-74
2021/03/31 05:11:37;;;;;;;6.07;4.70;;;;;;;5.88;57.41;99843.56;5090293;28;42216;-74
2021/03/31 05:14:04;;;;;;;7.03;5.47;;;;;;;5.90;57.51;99835.63;5091251;28;39929;-74
2021/03/31 05:16:31;;;;;;;9.10;6.63;;;;;;;5.96;58.26;99831.06;5126175;27;41737;-75
2021/03/31 05:18:59;;;;;;;7.47;6.23;;;;;;;6.03;58.97;99827.38;5094016;28;43565;-74
2021/03/31 05:21:26;;;;;;;7.67;6.20;;;;;;;6.02;59.28;99803.75;5111662;28;42137;-74
2021/03/31 05:23:53;;;;;;;8.43;6.83;;;;;;;6.19;58.93;99816.38;5077603;28;38994;-74
2021/03/31 05:26:20;;;;;;;8.80;6.03;;;;;;;6.30;58.47;99814.31;5112323;28;41433;-74
2021/03/31 05:28:47;;;;;;;15.20;7.23;;;;;;;6.32;58.31;99800.19;5093935;28;43580;-74
2021/03/31 05:31:14;;;;;;;9.23;6.37;;;;;;;6.50;58.52;99822.47;5111605;28;42922;-74
2021/03/31 05:33:42;;;;;;;6.83;5.90;;;;;;;6.61;57.82;99815.09;5093717;28;39699;-74
2021/03/31 05:36:10;;;;;;;7.17;5.33;;;;;;;6.70;57.75;99817.44;5111103;28;41530;-74
2021/03/31 05:38:37;;;;;;;9.03;5.80;;;;;;;6.73;57.44;99813.84;5094049;28;42722;-74
2021/03/31 05:41:05;;;;;;;7.17;5.73;;;;;;;6.87;57.09;99823.94;5093966;28;41300;-75
2021/03/31 05:43:32;;;;;;;8.37;5.37;;;;;;;6.92;56.86;99827.31;5093640;28;40301;-74
2021/03/31 05:46:00;;;;;;;6.63;5.43;;;;;;;6.99;56.51;99834.06;5111319;28;41511;-74
2021/03/31 05:48:27;;;;;;;8.27;6.10;;;;;;;7.06;56.59;99838.22;5110927;28;42614;-74
2021/03/31 05:50:54;;;;;;;7.57;5.63;;;;;;;7.10;56.93;99831.94;5076652;28;41225;-74
2021/03/31 05:53:22;;;;;;;8.57;6.63;;;;;;;7.15;56.78;99832.69;5092767;28;40986;-74
2021/03/31 05:55:49;;;;;;;8.10;6.70;;;;;;;7.13;56.48;99826.59;5111162;28;41674;-74
2021/03/31 05:58:16;;;;;;;7.20;6.03;;;;;;;7.27;56.41;99840.19;5092710;28;43440;-74
2021/03/31 06:00:44;;;;;;;10.30;6.27;;;;;;;7.34;56.73;99839.03;5093903;28;41085;-74
2021/03/31 06:03:11;;;;;;;8.30;7.27;;;;;;;7.35;56.55;99835.50;5092911;28;39934;-74
2021/03/31 06:05:38;;;;;;;11.30;7.97;;;;;;;7.42;56.95;99842.28;5092491;28;41736;-76
2021/03/31 06:08:06;;;;;;;10.37;7.80;;;;;;;7.50;56.57;99839.41;5091334;28;43305;-75
2021/03/31 06:10:36;;;;;;;11.90;7.77;;;;;;;7.55;56.59;99845.34;5092126;28;42239;-75
2021/03/31 06:13:06;;;;;;;9.27;7.13;;;;;;;7.57;56.67;99841.75;5087593;28;40212;-76
2021/03/31 06:15:36;;;;;;;9.63;7.17;;;;;;;7.62;56.41;99843.38;5088935;28;41585;-74
2021/03/31 06:18:11;;;;;;;14.20;7.53;;;;;;;7.68;56.53;99845.78;5088178;28;41828;-74
2021/03/31 06:20:49;;;;;;;11.03;7.03;;;;;;;7.73;56.23;99851.78;5106487;28;43004;-76
2021/03/31 06:23:51;;;;;;;9.43;6.70;;;;;;;7.85;56.39;99848.69;5089682;28;39078;-74
2021/03/31 06:26:30;;;;;;;9.50;6.77;;;;;;;7.98;56.36;99842.06;5069195;28;41758;-74
2021/03/31 06:28:59;;;;;;;8.53;6.87;;;;;;;8.09;56.68;99833.75;5073814;28;42717;-74
2021/03/31 06:31:31;;;;;;;10.60;7.57;;;;;;;8.23;56.23;99839.41;5106660;28;42402;-75
2021/03/31 06:34:03;;;;;;;9.23;7.00;;;;;;;8.38;55.94;99844.13;5089784;28;40048;-74
2021/03/31 06:36:35;;;;;;;10.23;7.10;;;;;;;8.55;55.66;99843.47;5106592;28;41563;-74
2021/03/31 06:39:16;;;;;;;12.03;7.10;;;;;;;8.72;55.45;99838.41;5106393;28;42784;-74
2021/03/31 06:41:51;;;;;;;8.50;6.23;;;;;;;8.94;55.13;99847.19;5106875;28;42881;-74
2021/03/31 06:44:36;;;;;;;8.87;6.63;;;;;;;9.16;55.08;99841.03;5105839;28;41117;-74
2021/03/31 06:47:08;;;;;;;10.73;6.70;;;;;;;9.37;54.71;99845.47;5087643;28;42196;-74
2021/03/31 06:49:36;;;;;;;8.77;6.60;;;;;;;9.55;54.24;99849.09;5088969;28;43310;-74
2021/03/31 06:52:05;;;;;;;13.77;7.87;;;;;;;9.72;54.06;99852.75;5071803;28;41221;-75
2021/03/31 06:54:42;;;;;;;10.60;7.27;;;;;;;9.89;53.93;99856.47;5088441;28;40346;-75
2021/03/31 06:57:12;;;;;;;11.53;7.93;;;;;;;10.00;54.10;99844.47;5085826;28;41725;-74
2021/03/31 06:59:40;;;;;;;9.37;8.00;;;;;;;10.08;54.00;99836.19;5105561;28;43553;-74
2021/03/31 07:02:07;;;;;;;9.17;7.30;;;;;;;10.32;53.91;99845.69;5093536;28;42572;-75
2021/03/31 07:04:35;;;;;;;10.83;7.00;;;;;;;10.47;53.49;99848.56;5120502;28;41058;-76
2021/03/31 07:07:07;;;;;;;11.33;7.27;;;;;;;10.61;52.71;99843.50;5117706;28;41852;-75
2021/03/31 07:09:35;;;;;;;9.37;6.87;;;;;;;10.90;52.41;99839.44;5098701;28;43208;-75
2021/03/31 07:12:02;;;;;;;9.00;6.47;;;;;;;11.71;51.25;99853.06;5102414;28;41194;-74
2021/03/31 07:14:30;;;;;;;9.87;6.83;;;;;;;12.85;48.26;99854.91;5119663;28;39755;-75
2021/03/31 07:16:58;;;;;;;10.77;7.87;;;;;;;13.71;46.71;99880.13;5118482;28;41934;-76
2021/03/31 07:19:26;;;;;;;9.63;6.70;;;;;;;14.12;45.42;99884.75;5087427;28;42936;-74
2021/03/31 07:21:55;;;;;;;11.27;7.50;;;;;;;14.69;45.00;99886.56;5087737;28;41784;-75
2021/03/31 07:24:22;;;;;;;11.63;7.60;;;;;;;15.62;43.48;99883.16;5089650;28;39708;-74
2021/03/31 07:26:50;;;;;;;9.27;6.97;;;;;;;16.69;41.14;99898.03;5109478;28;42425;-73
2021/03/31 07:29:17;;;;;;;15.43;8.07;;;;;;;17.20;39.88;99905.94;5109452;28;43062;-73
2021/03/31 07:31:47;;;;;;;11.63;7.40;;;;;;;17.62;39.93;99906.44;5110401;28;42232;-73
2021/03/31 07:34:19;;;;;;;12.17;8.57;;;;;;;17.71;40.20;99893.22;5092251;28;41006;-73
2021/03/31 07:36:49;;;;;;;10.07;8.43;;;;;;;17.59;39.17;99904.81;5109713;28;41990;-72
2021/03/31 07:39:22;;;;;;;10.40;7.90;;;;;;;17.51;39.68;99892.03;5109961;28;44013;-73
2021/03/31 07:41:50;;;;;;;11.30;8.10;;;;;;;17.83;38.55;99897.66;5091276;28;42727;-73
2021/03/31 07:44:21;;;;;;;12.93;8.67;;;;;;;18.90;37.06;99911.66;5109401;28;39518;-73
2021/03/31 07:46:50;;;;;;;10.77;8.43;;;;;;;20.31;34.71;99898.97;5110306;28;42405;-73
2021/03/31 07:49:18;;;;;;;10.87;7.67;;;;;;;21.74;32.67;99926.63;5109332;28;43015;-75
2021/03/31 07:51:57;;;;;;;10.87;8.27;;;;;;;23.10;30.70;99938.06;5111427;28;42812;-74
2021/03/31 07:54:24;;;;;;;11.17;7.80;;;;;;;24.50;28.59;99946.47;5113132;28;40561;-74
2021/03/31 07:56:52;;;;;;;14.17;8.70;;;;;;;26.45;25.87;99953.50;5095135;28;41666;-72
2021/03/31 07:59:19;;;;;;;12.37;8.20;;;;;;;28.03;23.62;99958.88;5094654;28;42840;-74
2021/03/31 08:01:51;;;;;;;12.20;8.93;;;;;;;28.64;22.04;99970.66;5112318;28;42262;-75
2021/03/31 08:04:20;;;;;;;13.67;9.43;;;;;;;29.28;21.21;99963.69;5095480;28;39073;-74
2021/03/31 08:06:50;;;;;;;10.30;8.97;;;;;;;30.62;21.08;99965.00;5095309;28;41581;-72
2021/03/31 08:09:22;;;;;;;9.90;8.60;;;;;;;31.69;19.65;99974.53;5111884;28;42842;-73
2021/03/31 08:12:05;;;;;;;9.77;8.87;;;;;;;32.74;18.40;99973.06;5094468;28;42376;-72
2021/03/31 08:14:50;;;;;;;9.67;8.53;;;;;;;33.99;17.47;99969.97;5095049;28;38967;-74
2021/03/31 08:17:18;;;;;;;9.32;8.43;;;;;;;34.50;16.83;99977.22;5112836;28;41384;-72
2021/03/31 08:19:48;;;;;;;11.70;8.93;;;;;;;33.44;17.84;99966.81;5112474;28;43153;-73
2021/03/31 08:22:21;;;;;;;14.53;12.33;;;;;;;32.51;18.00;99958.91;5111199;28;43043;-75
2021/03/31 08:24:49;;;;;;;9.73;8.73;;;;;;;31.36;19.31;99957.09;5078511;28;41122;-73
2021/03/31 08:27:17;;;;;;;11.13;9.03;;;;;;;30.77;20.03;99945.75;5092004;28;41378;-74
2021/03/31 08:29:50;;;;;;;12.20;9.30;;;;;;;30.57;20.19;99940.13;5091582;28;42635;-74
2021/03/31 08:32:19;;;;;;;10.83;9.03;;;;;;;31.17;19.79;99950.44;5106000;28;42890;-74
2021/03/31 08:34:47;;;;;;;11.97;9.70;;;;;;;31.65;19.43;99945.84;5111861;28;40351;-75
2021/03/31 08:37:21;;;;;;;17.47;10.13;;;;;;;32.88;18.81;99941.81;5092961;28;41582;-74
2021/03/31 08:39:48;;;;;;;10.13;9.07;;;;;;;34.34;16.93;99951.16;5073392;28;42633;-75
2021/03/31 08:42:15;;;;;;;12.63;10.13;;;;;;;35.35;16.59;99952.75;5056593;28;41372;-74
2021/03/31 08:44:48;;;;;;;13.00;9.27;;;;;;;36.07;16.13;99956.47;5091909;28;40508;-73
2021/03/31 08:47:19;;;;;;;13.35;10.27;;;;;;;36.53;15.47;99956.59;5101620;28;42185;-73
2021/03/31 08:49:48;;;;;;;13.77;10.85;;;;;;;36.91;14.86;99963.63;5093899;28;43490;-74
2021/03/31 08:52:17;;;;;;;12.60;10.15;;;;;;;37.59;14.85;99954.63;5112081;28;42263;-74
2021/03/31 08:54:46;;;;;;;10.55;9.30;;;;;;;38.63;13.95;99961.63;5112025;28;40420;-74
2021/03/31 08:57:16;;;;;;;15.38;11.88;;;;;;;39.39;12.72;99954.47;5112819;28;41366;-74
2021/03/31 08:59:45;;;;;;;12.02;10.45;;;;;;;39.90;12.58;99965.38;5094868;28;42068;-73
2021/03/31 09:02:16;;;;;;;11.70;9.98;;;;;;;39.17;13.55;99956.38;5111715;28;42932;-75
2021/03/31 09:04:44;;;;;;;11.40;10.30;;;;;;;38.46;13.40;99949.66;5112263;28;39919;-75
2021/03/31 09:07:13;;;;;;;13.13;10.88;;;;;;;38.29;13.66;99946.91;5111912;28;41432;-74
2021/03/31 09:09:42;;;;;;;14.60;11.25;;;;;;;38.55;13.38;99942.69;5111544;28;42858;-75
2021/03/31 09:12:10;;;;;;;17.17;11.00;;;;;;;39.39;13.10;99948.06;5093532;28;42289;-75
2021/03/31 09:14:40;;;;;;;14.30;11.13;;;;;;;40.44;12.65;99938.44;5094485;28;40959;-76
2021/03/31 09:17:09;;;;;;;19.38;10.93;;;;;;;41.08;12.22;99935.56;5112048;28;41671;-75
2021/03/31 09:19:38;;;;;;;11.60;10.52;;;;;;;41.91;12.19;99919.81;5111323;28;42818;-75
2021/03/31 09:22:07;;;;;;;12.18;11.05;;;;;;;42.76;11.37;99936.88;5111671;28;42235;-75
2021/03/31 09:24:35;;;;;;;11.13;9.77;;;;;;;41.74;11.72;99919.22;5092821;28;40707;-75
2021/03/31 09:27:06;;;;;;;12.30;10.98;;;;;;;40.66;12.30;99914.19;5111530;28;41494;-75
2021/03/31 09:29:33;;;;;;;15.43;10.70;;;;;;;39.49;13.01;99913.03;5093951;28;42654;-75
2021/03/31 09:32:02;;;;;;;12.75;11.52;;;;;;;38.67;13.68;99896.34;5111581;28;42093;-76
2021/03/31 09:34:34;;;;;;;14.90;10.98;;;;;;;39.06;13.38;99899.16;5111309;28;40707;-75
2021/03/31 09:37:04;;;;;;;12.38;11.07;;;;;;;39.12;13.52;99893.41;5111310;28;42894;-75
2021/03/31 09:39:44;;;;;;;13.40;12.07;;;;;;;39.18;13.31;99897.09;5093225;28;43463;-76
2021/03/31 09:42:20;;;;;;;12.95;11.57;;;;;;;39.53;13.57;99887.56;5111614;28;42190;-76
2021/03/31 09:44:47;;;;;;;12.10;10.93;;;;;;;39.68;13.23;99882.19;5111568;28;40598;-76
2021/03/31 09:47:15;;;;;;;15.85;12.98;;;;;;;38.88;14.08;99875.31;5093717;27;41590;-75
2021/03/31 09:49:43;;;;;;;21.08;13.55;;;;;;;38.03;14.17;99872.81;5092139;28;42395;-76
2021/03/31 09:52:12;;;;;;;16.45;13.98;;;;;;;37.90;14.15;99864.84;5093042;28;42201;-76
2021/03/31 09:54:39;;;;;;;15.52;13.35;;;;;;;38.80;13.74;99857.22;5093157;28;39960;-75
2021/03/31 09:57:10;;;;;;;15.68;13.95;;;;;;;39.39;13.55;99865.75;5092412;28;42482;-76
2021/03/31 09:59:39;;;;;;;16.52;11.82;;;;;;;39.47;13.35;99868.06;5092865;28;42912;-76
2021/03/31 10:02:08;;;;;;;18.08;14.68;;;;;;;39.00;13.33;99872.44;5101683;27;42893;-76
2021/03/31 10:04:37;;;;;;;15.25;13.20;;;;;;;38.50;14.15;99856.72;5112850;27;41460;-75
2021/03/31 10:07:10;;;;;;;15.13;12.48;;;;;;;39.15;13.81;99842.16;5096901;27;40617;-76
2021/03/31 10:09:41;;;;;;;15.50;14.07;;;;;;;39.54;13.39;99855.94;5093507;28;41811;-76
2021/03/31 10:12:11;;;;;;;20.00;13.88;;;;;;;39.71;12.87;99856.66;5110834;28;42276;-76
2021/03/31 10:14:48;;;;;;;15.93;14.07;;;;;;;40.54;12.75;99844.94;5072827;28;40045;-76
2021/03/31 10:17:15;;;;;;;14.57;13.18;;;;;;;40.35;12.81;99840.06;5090670;28;41670;-76
2021/03/31 10:19:43;;;;;;;15.85;14.25;;;;;;;40.03;12.81;99843.69;5087406;28;43424;-77
2021/03/31 10:22:10;;;;;;;16.30;14.60;;;;;;;40.31;12.39;99836.19;5092993;28;41956;-76
2021/03/31 10:24:39;;;;;;;15.98;13.27;;;;;;;39.65;12.02;99846.63;5093140;28;40469;-74
2021/03/31 10:27:06;;;;;;;18.67;15.35;;;;;;;39.69;12.58;99828.38;5110799;28;42456;-75
2021/03/31 10:29:36;;;;;;;18.08;15.38;;;;;;;40.74;11.89;99833.13;5110637;28;43278;-75
2021/03/31 10:32:05;;;;;;;15.27;13.63;;;;;;;41.84;11.90;99830.19;5093392;28;42156;-76
2021/03/31 10:34:39;;;;;;;16.17;14.43;;;;;;;42.13;10.22;99833.28;5110439;28;39924;-75
2021/03/31 10:37:15;;;;;;;16.27;14.60;;;;;;;42.18;10.16;99834.09;5092533;28;41584;-75
2021/03/31 10:51:18;;;;;;;16.08;14.15;;;;;;;47.14;7.32;99829.16;5074824;28;42131;-76
2021/03/31 10:53:51;;;;;;;12.40;11.30;;;;;;;47.77;7.44;99815.09;5110048;28;42066;-76
2021/03/31 10:56:19;;;;;;;14.88;12.00;;;;;;;48.33;7.19;99810.84;5110651;28;41647;-75
2021/03/31 10:58:46;;;;;;;13.70;12.55;;;;;;;48.11;6.62;99817.31;5109806;28;41377;-76
2021/03/31 11:01:14;;;;;;;12.48;11.35;;;;;;;47.77;6.47;99815.09;5110123;28;42423;-75
2021/03/31 11:03:41;;;;;;;13.85;12.43;;;;;;;47.48;7.17;99797.81;5109658;28;42752;-76
2021/03/31 11:06:09;;;;;;;12.25;11.15;;;;;;;47.26;7.39;99786.50;5110189;28;40162;-76
2021/03/31 11:08:36;;;;;;;14.68;13.23;;;;;;;46.91;7.01;99797.34;5110277;28;41384;-75
2021/03/31 11:11:05;;;;;;;14.35;12.98;;;;;;;46.57;7.18;99774.50;5092363;28;43328;-75
2021/03/31 11:13:32;;;;;;;11.63;10.63;;;;;;;46.06;7.48;99781.88;5110300;28;42931;-73
2021/03/31 11:16:02;;;;;;;12.80;11.60;;;;;;;45.53;8.06;99772.94;5110096;28;39832;-75
2021/03/31 11:18:39;;;;;;;12.65;11.25;;;;;;;45.55;7.86;99764.25;5075620;28;40583;-75
2021/03/31 11:26:35;;;;;;;12.18;10.98;;;;;;;46.91;7.03;99763.69;5110259;28;39738;-75
2021/03/31 11:29:02;;;;;;;10.93;10.02;;;;;;;47.41;6.70;99764.56;5109666;28;41357;-76
2021/03/31 11:31:29;;;;;;;10.52;9.63;;;;;;;48.18;7.06;99763.50;5091269;28;42640;-75
2021/03/31 11:33:57;;;;;;;13.55;12.27;;;;;;;48.49;6.30;99764.31;5092352;28;41636;-76
2021/03/31 11:36:24;;;;;;;12.45;11.27;;;;;;;48.20;6.20;99766.81;5075699;28;39034;-75
2021/03/31 11:38:51;;;;;;;14.07;9.55;;;;;;;47.30;6.85;99751.06;5091108;28;42154;-76
2021/03/31 11:41:19;;;;;;;12.45;11.40;;;;;;;46.20;7.43;99741.84;5110079;28;42744;-76
2021/03/31 11:43:46;;;;;;;12.65;11.45;;;;;;;45.40;7.23;99751.31;5109236;28;42136;-73
2021/03/31 11:46:13;;;;;;;11.25;9.90;;;;;;;45.85;7.07;99735.75;5091207;28;40753;-75
2021/03/31 11:48:40;;;;;;;11.90;9.35;;;;;;;46.79;6.54;99750.22;5109520;28;42164;-75
2021/03/31 11:51:08;;;;;;;13.23;11.93;;;;;;;47.53;6.18;99747.16;5091541;28;43429;-75
2021/03/31 11:53:35;;;;;;;11.50;10.57;;;;;;;48.16;6.58;99732.91;5092225;28;42213;-75
2021/03/31 11:56:03;;;;;;;11.23;10.15;;;;;;;48.63;6.09;99732.44;5109281;28;40111;-75
2021/03/31 11:58:30;;;;;;;13.95;11.23;;;;;;;48.96;6.01;99707.56;5110077;28;42165;-75
2021/03/31 12:00:58;;;;;;;10.18;9.18;;;;;;;49.42;6.28;99716.19;5092209;28;42857;-76
2021/03/31 12:03:25;;;;;;;9.70;8.70;;;;;;;49.96;6.04;99717.44;5109475;28;43035;-75